Latest Weather Observations for Townsville

IDQ60801

Issued at 7:07 pm EST Wednesday 1 April 2015 (issued every 30 minutes, with the page automatically refreshed every 10 minutes)

About weather observations | Map of weather stations | Latest weather observations for QLD | Other Formats
Station Details ID: 032040 Name: TOWNSVILLE AERO Lat: -19.25 Lon: 146.77 Height: 4.34 m
Data from the previous 72 hours. | See also: Recent months at Townsville
Date/Time
EST
Temp
°C
App
Temp
°C
Dew
Point
Rel
Hum
%
Delta-T
°C
Wind Press
QNH
hPa
Press
MSL
hPa
Rain
since 9 am
mm
Dir
 
Spd
km/h
Gust
km/h
Spd
kts
Gust
kts
01/07:00pm 27.3 28.4 21.9 72 3.6 E 19 28 10 15 1012.2 - 0.2
01/06:30pm 27.5 28.3 21.8 71 3.8 E 20 28 11 15 1012.0 - 0.2
01/06:00pm 27.8 29.2 21.8 70 4.0 E 17 26 9 14 1011.7 1011.6 0.2
01/05:30pm 28.4 28.5 21.2 65 4.8 E 22 32 12 17 1011.5 - 0.2
01/05:00pm 29.0 28.6 21.7 64 4.9 E 26 30 14 16 1011.3 - 0.2
01/04:30pm 29.1 27.7 22.0 65 4.8 ENE 32 39 17 21 1011.2 - 0.2
01/04:00pm 29.6 28.7 21.4 61 5.5 ENE 28 35 15 19 1011.0 - 0.2
01/03:30pm 30.5 28.7 21.6 59 6.0 ENE 33 39 18 21 1011.0 - 0.2
01/03:00pm 30.3 28.6 21.4 59 6.0 ENE 32 37 17 20 1011.2 1011.1 0.2
01/02:30pm 30.8 29.0 20.4 54 6.9 ENE 30 35 16 19 1011.6 - 0.2
01/02:00pm 31.0 29.5 20.3 53 7.1 ENE 28 35 15 19 1011.9 - 0.2
01/01:30pm 31.0 29.0 19.9 51 7.3 ENE 30 37 16 20 1012.3 - 0.2
01/01:00pm 30.5 27.5 19.1 50 7.4 ENE 33 41 18 22 1012.6 - 0.2
01/12:30pm 31.4 28.5 18.8 47 8.2 E 32 37 17 20 1013.2 - 0.2
01/12:00pm 30.7 29.2 18.6 48 7.8 ESE 24 32 13 17 1013.8 1013.7 0.2
01/11:30am 30.8 29.4 18.8 48 7.8 E 24 32 13 17 1014.3 - 0.2
01/11:00am 30.4 27.8 18.6 49 7.6 ESE 30 44 16 24 1015.0 - 0.2
01/10:30am 29.7 27.0 17.6 48 7.7 E 28 35 15 19 1015.3 - 0.2
01/10:00am 29.3 27.3 17.3 48 7.6 SSE 24 32 13 17 1015.6 - 0.2
01/09:30am 28.6 27.8 17.9 52 6.8 SE 19 26 10 14 1015.8 - 0.2
01/09:00am 28.2 27.6 18.5 55 6.2 SSE 19 26 10 14 1015.8 1015.7 4.0
01/08:00am 26.3 26.2 20.0 68 4.1 SE 20 28 11 15 1015.4 - 4.0
01/07:30am 25.4 27.9 21.0 76 2.9 ESE 9 11 5 6 1015.1 - 4.0
01/07:00am 24.5 26.5 20.8 80 2.4 SE 11 15 6 8 1014.9 - 4.0
01/06:30am 23.8 26.3 21.1 85 1.8 S 9 13 5 7 1014.6 - 4.0
01/06:00am 23.9 25.4 20.5 81 2.2 SSE 13 17 7 9 1014.1 1014.0 4.0
01/05:30am 23.9 26.7 21.5 86 1.6 SSE 9 11 5 6 1014.0 - 4.0
01/05:00am 23.4 28.0 21.7 90 1.1 CALM 0 0 0 0 1013.8 - 4.0
01/04:30am 23.0 26.3 21.8 93 0.8 S 7 11 4 6 1013.5 - 4.0
01/04:00am 23.0 27.6 21.8 93 0.8 CALM 0 0 0 0 1013.4 - 4.0
01/03:30am 22.7 27.2 21.6 93 0.7 CALM 0 0 0 0 1013.5 - 4.0
01/03:00am 23.0 27.6 21.8 93 0.8 CALM 0 4 0 2 1013.7 1013.6 4.0
01/02:30am 22.8 25.8 21.9 95 0.6 WNW 9 11 5 6 1014.1 - 4.0
01/02:00am 23.5 27.5 22.1 92 0.9 S 4 7 2 4 1014.1 - 4.0
01/01:30am 23.6 25.8 21.9 90 1.1 SSW 13 17 7 9 1014.3 - 4.0
01/01:00am 23.6 26.8 22.3 92 0.9 WSW 9 11 5 6 1014.7 - 4.0
01/12:30am 23.8 27.4 22.3 91 1.0 W 7 9 4 5 1015.0 - 4.0
01/12:00am 24.0 28.7 22.7 92 0.9 S 2 9 1 5 1015.6 1015.5 4.0
 
Date/Time
EST
Temp
°C
App
Temp
°C
Dew
Point
Rel
Hum
%
Delta-T
°C
Wind Press
QNH
hPa
Press
MSL
hPa
Rain
since 9 am
mm
Dir
 
Spd
km/h
Gust
km/h
Spd
kts
Gust
kts
31/11:30pm 23.8 26.3 22.5 92 0.9 SSW 13 15 7 8 1016.1 - 4.0
31/11:00pm 23.7 26.1 22.2 91 1.0 S 13 17 7 9 1016.2 - 4.0
31/10:30pm 23.3 23.6 22.2 93 0.7 S 24 32 13 17 1016.6 - 4.0
31/10:25pm 23.2 23.5 22.3 95 0.6 S 24 30 13 16 1016.6 - 4.0
31/10:08pm 24.1 23.9 22.8 92 0.9 SSE 28 35 15 19 1016.8 - 0.6
31/10:00pm 25.7 25.5 21.2 76 3.0 SSE 24 33 13 18 1016.4 - 0.0
31/09:30pm 26.5 27.1 21.4 73 3.4 SSW 20 22 11 12 1016.2 - 0.0
31/09:00pm 27.8 28.3 21.2 67 4.4 E 20 30 11 16 1016.0 1015.9 0.0
31/08:30pm 27.8 28.4 21.3 67 4.3 E 20 32 11 17 1015.5 - 0.0
31/08:00pm 27.9 28.4 21.9 70 4.0 E 22 30 12 16 1015.2 - 0.0
31/07:30pm 27.8 29.1 22.6 73 3.5 ENE 20 28 11 15 1014.8 - 0.0
31/07:00pm 27.8 28.5 22.2 71 3.8 E 22 32 12 17 1014.5 - 0.0
31/06:30pm 27.8 28.5 22.3 72 3.7 ENE 22 30 12 16 1014.0 - 0.0
31/06:00pm 28.1 28.0 22.3 70 3.9 E 26 33 14 18 1013.7 1013.6 0.0
31/05:30pm 28.5 28.1 22.4 69 4.1 ENE 28 35 15 19 1013.5 - 0.0
31/05:00pm 29.3 28.6 22.5 67 4.6 ENE 30 37 16 20 1013.3 - 0.0
31/04:30pm 29.7 27.8 21.3 60 5.6 ENE 33 41 18 22 1013.0 - 0.0
31/04:00pm 30.1 28.5 21.6 60 5.7 ENE 32 41 17 22 1012.6 - 0.0
31/03:30pm 30.6 28.8 21.5 58 6.1 ENE 33 39 18 21 1012.6 - 0.0
31/03:00pm 30.4 29.0 22.0 60 5.7 ENE 32 39 17 21 1012.7 1012.6 0.0
31/02:30pm 31.1 29.5 21.6 57 6.4 ENE 32 37 17 20 1013.1 - 0.0
31/02:00pm 31.5 29.7 21.2 54 6.9 ENE 32 41 17 22 1013.7 - 0.0
31/01:30pm 31.5 29.5 20.7 52 7.2 ENE 32 39 17 21 1014.2 - 0.0
31/01:00pm 31.5 29.3 19.6 49 7.8 ENE 30 39 16 21 1014.5 - 0.0
31/12:30pm 31.8 30.6 20.9 52 7.3 ENE 28 35 15 19 1015.2 - 0.0
31/12:00pm 31.7 29.3 19.9 49 7.8 E 32 39 17 21 1015.8 1015.7 0.0
31/11:30am 31.9 29.4 19.8 48 8.0 E 32 43 17 23 1016.3 - 0.0
31/11:00am 31.4 29.4 20.0 50 7.5 ENE 30 37 16 20 1016.7 - 0.0
31/10:30am 31.4 30.6 19.3 48 7.9 ESE 22 35 12 19 1017.1 - 0.0
31/10:00am 30.5 29.6 19.9 53 7.0 ESE 24 37 13 20 1017.4 - 0.0
31/09:30am 29.6 29.0 20.5 58 6.0 ESE 24 32 13 17 1017.4 - 0.0
31/09:00am 29.6 28.7 20.7 58 5.9 ESE 26 35 14 19 1017.2 1017.1 0.0
31/08:30am 28.5 30.0 21.3 65 4.8 ESE 15 20 8 11 1017.1 - 0.0
31/08:00am 28.0 29.8 21.1 66 4.6 SE 13 15 7 8 1016.8 - 0.0
31/07:30am 26.9 28.6 21.0 70 3.9 SSE 13 17 7 9 1016.5 - 0.0
31/07:00am 25.7 27.2 21.2 76 3.0 SE 15 17 8 9 1016.0 - 0.0
31/06:30am 24.9 26.2 20.9 78 2.6 SE 15 17 8 9 1015.4 - 0.0
31/06:00am 24.9 26.5 20.8 78 2.7 SE 13 15 7 8 1015.4 1015.3 0.0
31/05:30am 24.6 27.0 20.8 79 2.5 ESE 9 11 5 6 1015.1 - 0.0
31/05:00am 24.9 26.9 20.8 78 2.7 SE 11 13 6 7 1015.1 - 0.0
31/04:30am 25.0 27.1 21.0 78 2.6 SE 11 13 6 7 1015.0 - 0.0
31/04:00am 25.1 26.6 21.2 79 2.6 SE 15 17 8 9 1014.8 - 0.0
31/03:30am 25.2 27.0 21.1 78 2.7 SE 13 17 7 9 1014.8 - 0.0
31/03:00am 25.4 27.2 21.2 77 2.8 SE 13 15 7 8 1015.0 1014.9 0.0
31/02:30am 25.3 27.0 21.0 77 2.8 SE 13 15 7 8 1015.2 - 0.0
31/02:00am 25.6 27.4 21.2 76 2.9 SE 13 15 7 8 1015.5 - 0.0
31/01:30am 26.1 27.5 21.1 74 3.3 ESE 15 19 8 10 1015.8 - 0.0
31/01:00am 26.0 27.7 21.0 74 3.3 ESE 13 17 7 9 1016.1 - 0.0
31/12:30am 26.1 27.5 21.1 74 3.3 ESE 15 19 8 10 1016.6 - 0.0
31/12:00am 26.0 27.1 21.3 75 3.1 ESE 17 19 9 10 1016.8 1016.7 0.0
 
Date/Time
EST
Temp
°C
App
Temp
°C
Dew
Point
Rel
Hum
%
Delta-T
°C
Wind Press
QNH
hPa
Press
MSL
hPa
Rain
since 9 am
mm
Dir
 
Spd
km/h
Gust
km/h
Spd
kts
Gust
kts
30/11:30pm 26.2 26.9 21.2 74 3.3 ESE 19 22 10 12 1017.1 - 0.0
30/11:00pm 26.6 28.1 21.3 72 3.5 SE 15 19 8 10 1017.4 - 0.0
30/10:30pm 26.7 28.3 21.4 72 3.5 SE 15 19 8 10 1017.4 - 0.0
30/10:00pm 27.1 28.8 21.7 72 3.6 SE 15 20 8 11 1017.5 - 0.0
30/09:30pm 27.8 28.6 21.8 70 4.0 ESE 20 28 11 15 1017.5 - 0.0
30/09:00pm 27.8 29.3 22.0 70 3.9 E 17 26 9 14 1017.4 1017.3 0.0
30/08:30pm 27.9 28.4 21.9 70 4.0 E 22 28 12 15 1017.1 - 0.0
30/08:00pm 27.9 27.8 21.5 68 4.3 E 24 32 13 17 1017.0 - 0.0
30/07:30pm 27.9 28.8 21.5 68 4.3 E 19 28 10 15 1016.6 - 0.0
30/07:00pm 27.9 29.3 21.1 66 4.5 E 15 20 8 11 1016.4 - 0.0
30/06:30pm 28.2 29.2 21.1 65 4.7 E 17 24 9 13 1016.1 - 0.0
30/06:00pm 28.7 28.3 21.0 63 5.1 E 24 28 13 15 1015.9 1015.8 0.0
30/05:30pm 29.7 28.7 20.5 57 6.1 E 26 30 14 16 1015.7 - 0.0
30/05:00pm 29.9 29.1 20.9 58 6.0 E 26 35 14 19 1015.5 - 0.0
30/04:30pm 30.9 28.9 20.0 52 7.2 ENE 30 35 16 19 1015.3 - 0.0
30/04:00pm 30.9 29.2 20.5 54 6.9 ENE 30 35 16 19 1015.1 - 0.0
30/03:30pm 30.8 28.8 19.9 52 7.2 ENE 30 35 16 19 1014.9 - 0.0
30/03:00pm 31.4 29.1 20.2 51 7.4 ENE 32 37 17 20 1014.8 1014.7 0.0
30/02:30pm 31.0 29.2 20.3 53 7.1 ENE 30 35 16 19 1014.8 - 0.0
30/02:00pm 32.0 29.9 21.0 52 7.4 ENE 33 41 18 22 1015.0 - 0.0
30/01:30pm 31.3 28.8 19.7 50 7.6 ENE 32 39 17 21 1015.2 - 0.0
30/01:00pm 32.1 27.9 16.1 38 10.0 E 33 41 18 22 1015.6 - 0.0
30/12:30pm 32.6 29.1 17.4 40 9.7 ENE 32 41 17 22 1016.1 - 0.0
30/12:00pm 32.0 29.3 19.7 48 8.1 E 33 41 18 22 1016.5 1016.4 0.0
30/11:30am 31.7 28.9 19.1 47 8.2 E 32 37 17 20 1017.2 - 0.0
30/11:00am 31.9 29.7 18.8 45 8.5 E 28 37 15 20 1017.8 - 0.0
30/10:30am 30.8 28.9 19.3 50 7.5 E 28 41 15 22 1018.1 - 0.0
30/10:00am 30.2 28.3 19.3 52 7.1 ESE 28 37 15 20 1018.2 - 0.0
30/09:30am 29.6 28.1 19.5 54 6.6 ESE 26 35 14 19 1018.3 - 0.0
30/09:00am 28.8 28.2 20.5 61 5.5 SE 24 32 13 17 1018.3 1018.2 0.0
30/08:30am 28.0 27.1 20.7 64 4.8 SE 26 35 14 19 1018.0 - 0.0
30/08:00am 27.9 29.1 20.6 64 4.8 SE 15 22 8 12 1017.3 - 0.0
30/07:30am 26.9 28.2 20.2 66 4.4 SE 13 15 7 8 1016.9 - 0.0
30/07:00am 26.0 27.2 20.0 69 3.9 SE 13 17 7 9 1016.9 - 0.0
30/06:30am 25.1 26.7 20.0 73 3.3 S 11 13 6 7 1016.7 - 0.0
30/06:00am 25.0 27.0 19.9 73 3.3 S 9 13 5 7 1016.5 1016.4 0.0
30/05:30am 25.4 27.0 20.0 72 3.5 S 11 15 6 8 1016.2 - 0.0
30/05:00am 25.4 27.3 19.8 71 3.6 SE 9 13 5 7 1015.9 - 0.0
30/04:30am 25.5 27.4 19.8 70 3.7 SE 9 13 5 7 1015.6 - 0.0
30/04:00am 25.4 26.9 19.7 70 3.7 SSE 11 13 6 7 1015.5 - 0.0
30/03:30am 25.5 26.9 19.6 70 3.8 SSE 11 15 6 8 1015.5 - 0.0
30/03:00am 25.7 27.6 19.7 69 3.9 SSE 9 11 5 6 1015.7 1015.6 0.0
30/02:30am 26.2 27.2 19.4 66 4.4 SE 13 19 7 10 1015.9 - 0.0
30/02:00am 26.1 27.2 19.6 67 4.2 SE 13 17 7 9 1016.1 - 0.0
30/01:30am 26.5 27.6 19.7 66 4.4 SE 13 17 7 9 1016.6 - 0.0
30/01:00am 26.8 27.1 19.7 65 4.6 ESE 17 20 9 11 1016.8 - 0.0
30/12:30am 26.9 27.8 20.0 66 4.5 SE 15 19 8 10 1017.2 - 0.0
30/12:00am 27.0 28.2 19.9 65 4.6 SE 13 17 7 9 1017.4 1017.3 0.0
 
Date/Time
EST
Temp
°C
App
Temp
°C
Dew
Point
Rel
Hum
%
Delta-T
°C
Wind Press
QNH
hPa
Press
MSL
hPa
Rain
since 9 am
mm
Dir
 
Spd
km/h
Gust
km/h
Spd
kts
Gust
kts
29/11:30pm 27.1 28.2 19.7 64 4.8 SE 13 17 7 9 1017.5 - 0.0
29/11:00pm 27.3 27.5 19.4 62 5.1 ESE 17 19 9 10 1017.7 - 0.0
29/10:30pm 27.3 27.3 19.8 63 4.9 SE 19 22 10 12 1017.8 - 0.0
29/10:00pm 27.8 27.2 18.8 58 5.8 E 20 28 11 15 1017.8 - 0.0
29/09:30pm 27.6 29.0 20.3 64 4.8 SE 13 19 7 10 1017.9 - 0.0
29/09:00pm 28.1 28.1 20.2 62 5.2 E 20 32 11 17 1017.7 1017.6 0.0
29/08:30pm 28.2 27.4 19.2 58 5.8 E 22 32 12 17 1017.4 - 0.0
29/08:00pm 28.1 26.7 19.6 60 5.5 E 26 33 14 18 1017.2 - 0.0
29/07:30pm 28.2 27.3 19.1 57 5.9 E 22 30 12 16 1016.7 - 0.0

Other Formats:

Comma delimited format used in spreadsheet applications
http://www.bom.gov.au/fwo/IDQ60801/IDQ60801.94294.axf

JavaScript Object Notation format (JSON) in row-major order
http://www.bom.gov.au/fwo/IDQ60801/IDQ60801.94294.json